Time;durP1;ratioP1;P1;durP2;ratioP2;P2;SDS_P1;SDS_P2;PMS_P1;PMS_P2;Temp;Humidity;BMP_temperature;BMP_pressure;BME280_temperature;BME280_humidity;BME280_pressure;Samples;Min_cycle;Max_cycle;Signal;HPM_P1;HPM_P2
2023/04/03 00:00:08;;;;;;;9.90;2.07;;;1.40;99.90;;;;;;10464910;28;20196;-77
2023/04/03 00:05:29;;;;;;;6.10;3.00;;;1.40;99.90;;;;;;10430027;28;20200;-77
2023/04/03 00:10:51;;;;;;;7.50;2.87;;;1.30;99.90;;;;;;10434789;28;20220;-78
2023/04/03 00:16:12;;;;;;;4.47;1.93;;;1.30;99.90;;;;;;10440768;28;20291;-76
2023/04/03 00:21:33;;;;;;;6.53;3.00;;;1.40;99.90;;;;;;10427320;28;20654;-79
2023/04/03 00:26:54;;;;;;;6.27;3.13;;;1.40;99.90;;;;;;10401921;28;20207;-77
2023/04/03 00:32:18;;;;;;;9.20;3.93;;;1.40;99.90;;;;;;10441159;28;20197;-77
2023/04/03 00:37:40;;;;;;;9.23;3.10;;;1.40;99.90;;;;;;10437819;28;20266;-77
2023/04/03 00:43:05;;;;;;;7.00;2.83;;;1.40;99.90;;;;;;10441557;28;20299;-79
2023/04/03 00:48:31;;;;;;;23.03;7.73;;;1.30;99.90;;;;;;10426891;28;20200;-77
2023/04/03 00:53:58;;;;;;;25.37;10.93;;;1.30;99.90;;;;;;10472044;28;20203;-77
2023/04/03 00:59:25;;;;;;;29.63;11.70;;;1.30;99.90;;;;;;10478535;28;20227;-77
2023/04/03 01:04:47;;;;;;;22.93;11.23;;;1.20;99.90;;;;;;10407823;28;20208;-79
2023/04/03 01:10:13;;;;;;;18.40;7.33;;;1.20;99.90;;;;;;10441546;28;20257;-77
2023/04/03 01:15:35;;;;;;;25.70;12.40;;;1.30;99.90;;;;;;10426180;28;20225;-76
2023/04/03 01:21:02;;;;;;;34.20;17.90;;;1.30;99.90;;;;;;10408566;28;20495;-79
2023/04/03 01:26:25;;;;;;;20.90;9.07;;;1.30;99.90;;;;;;10414836;28;20433;-77
2023/04/03 01:31:58;;;;;;;19.60;8.13;;;1.30;99.90;;;;;;10408868;28;20227;-77
2023/04/03 01:37:20;;;;;;;11.47;5.17;;;1.30;99.90;;;;;;10401469;28;20286;-78
2023/04/03 01:42:41;;;;;;;17.43;7.97;;;1.30;99.90;;;;;;10439049;28;20481;-78
2023/04/03 01:48:03;;;;;;;15.20;7.67;;;1.20;99.90;;;;;;10438990;28;20235;-77
2023/04/03 01:53:25;;;;;;;20.90;10.23;;;1.30;99.90;;;;;;10414466;28;20208;-77
2023/04/03 01:58:47;;;;;;;21.83;9.00;;;1.40;99.90;;;;;;10383354;28;20243;-77
2023/04/03 02:04:08;;;;;;;24.30;10.47;;;1.40;99.90;;;;;;10400820;28;20435;-76
2023/04/03 02:09:30;;;;;;;18.50;9.77;;;1.40;99.90;;;;;;10383476;28;20251;-77
2023/04/03 02:14:51;;;;;;;30.10;14.07;;;1.30;99.90;;;;;;10400614;28;20244;-77
2023/04/03 02:20:13;;;;;;;23.27;12.97;;;1.30;99.90;;;;;;10382887;28;20419;-77
2023/04/03 02:25:35;;;;;;;18.43;9.37;;;1.20;99.90;;;;;;10409265;28;20197;-78
2023/04/03 02:30:58;;;;;;;24.77;10.27;;;1.20;99.90;;;;;;10426106;28;20272;-78
2023/04/03 02:36:19;;;;;;;18.13;9.67;;;1.20;99.90;;;;;;10437818;28;20232;-79
2023/04/03 02:41:47;;;;;;;25.57;13.87;;;1.20;99.90;;;;;;10429893;28;20262;-77
2023/04/03 02:47:14;;;;;;;32.37;16.70;;;1.30;99.90;;;;;;10463578;28;20222;-78
2023/04/03 02:52:35;;;;;;;26.60;14.57;;;1.30;99.90;;;;;;10477575;28;20196;-79
2023/04/03 02:57:56;;;;;;;33.57;17.70;;;1.10;99.90;;;;;;10447156;28;20270;-79
2023/04/03 03:03:17;;;;;;;30.37;15.73;;;1.20;99.90;;;;;;10419432;28;20484;-79
2023/04/03 03:08:39;;;;;;;52.40;26.40;;;1.20;99.90;;;;;;10395984;28;20185;-79
2023/04/03 03:14:00;;;;;;;17.93;8.63;;;1.20;99.90;;;;;;10410970;28;20222;-77
2023/04/03 03:19:21;;;;;;;27.23;11.07;;;1.20;99.90;;;;;;10408656;28;20189;-79
2023/04/03 03:24:42;;;;;;;33.47;13.80;;;1.10;99.90;;;;;;10400036;28;20510;-77
2023/04/03 03:30:04;;;;;;;23.23;12.10;;;1.20;99.90;;;;;;10415824;28;20456;-76
2023/04/03 03:35:26;;;;;;;31.70;14.43;;;1.40;99.90;;;;;;10421600;28;20392;-78
2023/04/03 03:40:49;;;;;;;30.17;14.13;;;1.40;99.90;;;;;;10414702;28;20208;-78
2023/04/03 03:46:13;;;;;;;51.03;21.43;;;1.50;99.00;;;;;;10476119;28;20442;-78
2023/04/03 03:51:34;;;;;;;24.23;11.93;;;1.50;99.50;;;;;;10483803;28;20382;-79
2023/04/03 03:56:55;;;;;;;11.37;6.57;;;1.60;97.90;;;;;;10475240;28;20227;-76
2023/04/03 04:02:18;;;;;;;5.07;2.27;;;1.70;97.20;;;;;;10432172;28;20204;-77
2023/04/03 04:07:39;;;;;;;5.87;1.93;;;1.70;91.70;;;;;;10402702;28;20243;-77
2023/04/03 04:13:00;;;;;;;5.80;2.37;;;1.70;85.90;;;;;;10466861;28;20208;-78
2023/04/03 04:18:23;;;;;;;8.87;1.60;;;1.80;85.30;;;;;;10428228;28;20235;-77
2023/04/03 04:23:45;;;;;;;5.83;2.83;;;1.80;67.20;;;;;;10434864;28;20301;-79
2023/04/03 04:29:10;;;;;;;4.67;2.40;;;1.80;56.70;;;;;;10428321;28;20469;-79
2023/04/03 04:34:32;;;;;;;4.00;2.20;;;1.80;57.30;;;;;;10427161;28;20207;-78
2023/04/03 04:39:55;;;;;;;3.23;1.70;;;1.80;55.90;;;;;;10439537;28;20193;-78
2023/04/03 04:45:16;;;;;;;9.00;1.70;;;1.70;48.50;;;;;;10479397;28;20600;-77
2023/04/03 04:50:40;;;;;;;6.70;2.17;;;1.80;54.80;;;;;;10455155;28;20554;-76
2023/04/03 04:56:01;;;;;;;4.83;2.07;;;1.80;53.70;;;;;;10479429;28;20221;-77
2023/04/03 05:01:23;;;;;;;4.90;1.73;;;1.90;52.20;;;;;;10443047;28;20206;-77
2023/04/03 05:06:55;;;;;;;5.63;2.53;;;1.80;52.60;;;;;;10433009;28;20274;-78
2023/04/03 05:12:20;;;;;;;14.90;4.17;;;1.90;50.70;;;;;;10437875;28;20196;-79
2023/04/03 05:17:48;;;;;;;10.00;5.10;;;1.90;44.20;;;;;;10437247;28;20227;-76
2023/04/03 05:23:11;;;;;;;5.87;2.27;;;1.80;40.40;;;;;;10433856;28;20202;-78
2023/04/03 05:28:33;;;;;;;2.83;1.47;;;1.80;38.00;;;;;;10406010;28;20197;-77
2023/04/03 05:33:55;;;;;;;4.47;1.40;;;1.80;34.50;;;;;;10432213;28;20200;-79
2023/04/03 05:39:16;;;;;;;3.93;1.73;;;1.80;33.30;;;;;;10436798;28;20224;-78
2023/04/03 05:46:54;;;;;;;5.87;2.17;;;1.90;49.30;;;;;;10555228;27;20641;-75
2023/04/03 05:52:21;;;;;;;6.87;2.90;;;2.10;37.60;;;;;;10587725;28;20208;-77
2023/04/03 05:57:43;;;;;;;15.67;5.43;;;2.10;35.70;;;;;;10596218;28;20444;-77
2023/04/03 06:03:05;;;;;;;11.07;3.83;;;2.10;30.90;;;;;;10549066;28;20224;-80
2023/04/03 06:08:26;;;;;;;19.37;7.87;;;2.00;31.20;;;;;;10534305;28;20201;-79
2023/04/03 06:13:47;;;;;;;16.30;4.77;;;2.10;31.70;;;;;;10511469;28;20192;-78
2023/04/03 06:19:10;;;;;;;5.57;2.17;;;2.30;29.80;;;;;;10527576;28;20188;-79
2023/04/03 06:24:35;;;;;;;9.80;4.40;;;2.40;29.50;;;;;;10511012;28;20248;-78
2023/04/03 06:29:56;;;;;;;15.07;5.80;;;2.70;27.80;;;;;;10532276;28;20483;-76
2023/04/03 06:35:17;;;;;;;3.87;1.80;;;3.10;27.40;;;;;;10540703;28;20322;-77
2023/04/03 06:40:39;;;;;;;5.50;2.53;;;3.00;25.50;;;;;;10538781;28;20181;-78
2023/04/03 06:46:00;;;;;;;8.03;1.63;;;3.00;27.10;;;;;;10539460;28;20234;-79
2023/04/03 06:51:27;;;;;;;5.53;1.40;;;2.90;26.30;;;;;;10531495;28;20246;-78
2023/04/03 06:56:48;;;;;;;3.90;1.93;;;3.00;27.40;;;;;;10490408;28;20192;-78
2023/04/03 07:02:12;;;;;;;6.90;2.17;;;3.50;27.60;;;;;;10510418;28;20204;-78
2023/04/03 07:07:34;;;;;;;5.30;1.70;;;4.50;24.40;;;;;;10501567;28;20247;-77
2023/04/03 07:12:55;;;;;;;16.80;2.10;;;5.30;21.50;;;;;;10498188;28;20211;-78
2023/04/03 07:18:19;;;;;;;4.00;1.90;;;4.90;20.90;;;;;;10452240;28;20232;-78
2023/04/03 07:23:40;;;;;;;4.37;1.50;;;4.40;21.60;;;;;;10426767;28;20296;-77
2023/04/03 07:29:02;;;;;;;4.30;1.87;;;5.20;21.00;;;;;;10436679;28;20197;-78
2023/04/03 07:34:23;;;;;;;22.57;8.00;;;6.80;17.60;;;;;;10426379;28;20221;-88
2023/04/03 07:39:45;;;;;;;9.17;4.03;;;8.00;14.20;;;;;;10413408;28;20224;-83
2023/04/03 07:45:07;;;;;;;11.53;5.47;;;8.80;11.00;;;;;;10428829;28;20548;-79
2023/04/03 07:50:30;;;;;;;10.50;3.00;;;9.60;9.30;;;;;;10424380;28;20208;-79
2023/04/03 07:55:55;;;;;;;6.10;3.47;;;8.90;8.00;;;;;;10402757;28;20204;-80
2023/04/03 08:01:16;;;;;;;8.50;3.93;;;8.80;8.10;;;;;;10420335;28;20252;-90
2023/04/03 08:06:37;;;;;;;5.23;2.17;;;8.70;8.60;;;;;;10425284;28;20234;-81
2023/04/03 08:12:05;;;;;;;5.27;3.23;;;9.10;6.40;;;;;;10442048;28;20196;-79
2023/04/03 08:17:26;;;;;;;4.10;1.80;;;9.90;6.40;;;;;;10402348;28;20198;-79
2023/04/03 08:22:47;;;;;;;3.87;1.50;;;9.40;5.80;;;;;;10424325;28;20458;-79
2023/04/03 08:28:11;;;;;;;5.20;2.47;;;8.50;5.80;;;;;;10410964;28;20284;-81
2023/04/03 08:33:33;;;;;;;8.80;4.63;;;8.80;7.40;;;;;;10426643;28;20197;-77
2023/04/03 08:38:55;;;;;;;8.93;3.87;;;9.80;5.80;;;;;;10398528;28;20229;-80
2023/04/03 08:44:55;;;;;;;75.70;25.07;;;9.60;4.80;;;;;;10430760;28;20320;-79
2023/04/03 08:50:21;;;;;;;34.47;11.63;;;8.20;6.40;;;;;;10437064;28;20213;-79
2023/04/03 08:55:48;;;;;;;32.67;10.67;;;8.20;7.70;;;;;;10421706;28;20233;-80
2023/04/03 09:01:29;;;;;;;63.43;16.93;;;9.00;5.80;;;;;;10407772;28;20203;-79
2023/04/03 09:06:56;;;;;;;6.90;3.60;;;8.80;6.10;;;;;;10417147;28;20323;-81
2023/04/03 09:12:26;;;;;;;6.30;1.70;;;9.30;5.30;;;;;;10411821;28;20207;-85
2023/04/03 09:18:04;;;;;;;10.03;2.47;;;9.90;4.70;;;;;;10391110;28;20213;-91
2023/04/03 09:23:37;;;;;;;7.33;2.20;;;10.30;4.70;;;;;;10409063;28;20240;-79
2023/04/03 09:29:05;;;;;;;6.53;2.90;;;8.20;6.40;;;;;;10402957;28;20198;-79
2023/04/03 09:34:36;;;;;;;7.27;2.73;;;7.10;8.60;;;;;;10403332;28;20205;-82
2023/04/03 09:39:58;;;;;;;18.03;7.73;;;7.00;9.80;;;;;;10418576;28;20279;-80
2023/04/03 09:45:25;;;;;;;30.80;11.63;;;6.80;10.30;;;;;;10418840;28;20239;-79
2023/04/03 09:51:02;;;;;;;17.00;6.63;;;6.50;10.60;;;;;;10380985;28;20364;-93
2023/04/03 09:56:28;;;;;;;16.67;8.73;;;6.40;11.00;;;;;;10408168;28;20241;-84
2023/04/03 10:02:21;;;;;;;20.87;8.50;;;6.00;11.40;;;;;;10408782;28;20201;-90
2023/04/03 10:07:42;;;;;;;12.07;4.30;;;6.00;11.40;;;;;;10433029;28;20231;-87
2023/04/03 10:13:16;;;;;;;4.97;3.30;;;6.10;11.20;;;;;;10428989;28;20283;-80
2023/04/03 10:18:49;;;;;;;7.80;2.40;;;6.30;11.90;;;;;;10403738;28;20518;-89
2023/04/03 10:24:14;;;;;;;9.87;4.57;;;6.40;11.90;;;;;;10427456;28;20239;-80
2023/04/03 10:30:00;;;;;;;4.70;1.97;;;6.60;12.00;;;;;;10428949;28;20200;-83
2023/04/03 10:35:31;;;;;;;7.97;3.23;;;6.60;12.10;;;;;;10427434;28;20207;-78
2023/04/03 10:40:58;;;;;;;15.70;5.40;;;6.40;13.00;;;;;;10422318;28;20228;-84
2023/04/03 10:46:32;;;;;;;13.53;4.63;;;6.60;14.30;;;;;;10438075;28;20233;-77
2023/04/03 10:52:23;;;;;;;25.03;11.20;;;7.40;11.60;;;;;;10435359;28;20565;-77
2023/04/03 10:57:46;;;;;;;46.47;11.67;;;6.70;11.90;;;;;;10441436;28;20509;-84
2023/04/03 11:03:40;;;;;;;66.70;18.10;;;6.40;12.70;;;;;;10412732;28;20524;-77
2023/04/03 11:09:15;;;;;;;39.20;11.37;;;6.40;14.40;;;;;;10399272;28;20218;-78
2023/04/03 11:14:38;;;;;;;37.47;9.83;;;6.70;14.20;;;;;;10439978;28;20443;-80
2023/04/03 11:20:10;;;;;;;16.93;6.00;;;7.10;12.90;;;;;;10411938;28;20224;-89
2023/04/03 11:25:35;;;;;;;9.60;4.10;;;7.40;12.80;;;;;;10423831;28;20228;-83
2023/04/03 11:31:06;;;;;;;18.13;6.40;;;6.80;17.30;;;;;;10436260;28;20214;-92
2023/04/03 11:36:37;;;;;;;14.03;5.57;;;6.30;19.60;;;;;;10426895;28;20412;-85
2023/04/03 11:42:30;;;;;;;33.00;12.67;;;5.90;20.70;;;;;;10436609;28;20223;-83
2023/04/03 11:48:01;;;;;;;12.23;5.27;;;5.50;23.70;;;;;;10434185;28;20547;-84
2023/04/03 11:53:30;;;;;;;7.37;4.13;;;5.20;33.90;;;;;;10402022;28;20208;-85
2023/04/03 11:59:10;;;;;;;16.77;6.23;;;4.90;81.80;;;;;;10428648;28;20581;-79
2023/04/03 12:04:31;;;;;;;7.93;2.87;;;5.50;82.10;;;;;;10432849;28;20795;-76
2023/04/03 12:09:57;;;;;;;20.20;6.57;;;6.40;53.10;;;;;;10433280;28;20289;-79
2023/04/03 12:15:22;;;;;;;24.87;8.93;;;6.50;32.10;;;;;;10419802;28;20594;-77
2023/04/03 12:20:56;;;;;;;8.60;4.10;;;5.70;32.10;;;;;;10428319;28;20610;-78
2023/04/03 12:26:19;;;;;;;17.40;7.07;;;5.50;40.90;;;;;;10422959;28;20250;-77
2023/04/03 12:31:53;;;;;;;8.23;4.20;;;5.50;37.60;;;;;;10437908;28;20196;-76
2023/04/03 12:37:36;;;;;;;11.10;4.10;;;5.30;32.80;;;;;;10433595;28;20212;-77
2023/04/03 12:43:04;;;;;;;7.20;3.80;;;5.50;37.50;;;;;;10434607;28;20306;-76
2023/04/03 12:48:28;;;;;;;15.97;7.43;;;5.90;27.20;;;;;;10426548;28;20421;-81
2023/04/03 12:53:52;;;;;;;5.17;3.00;;;6.00;24.00;;;;;;10420198;28;20212;-77
2023/04/03 12:59:23;;;;;;;6.83;2.60;;;6.00;22.90;;;;;;10438660;28;20196;-85
2023/04/03 13:04:45;;;;;;;7.23;2.80;;;6.10;21.80;;;;;;10429370;28;20488;-78
2023/04/03 13:10:07;;;;;;;18.73;8.43;;;6.60;19.70;;;;;;10409029;28;20448;-79
2023/04/03 13:15:41;;;;;;;6.30;3.40;;;7.00;16.60;;;;;;10419431;28;20228;-79
2023/04/03 13:21:07;;;;;;;3.00;1.60;;;6.80;15.70;;;;;;10417396;28;20300;-79
2023/04/03 13:26:31;;;;;;;1.93;1.33;;;6.60;15.10;;;;;;10431886;28;20220;-77
2023/04/03 13:31:55;;;;;;;8.70;5.63;;;6.70;14.70;;;;;;10432595;28;20200;-80
2023/04/03 13:37:30;;;;;;;8.03;4.30;;;6.50;12.90;;;;;;10418302;28;20537;-76
2023/04/03 13:43:05;;;;;;;7.63;3.90;;;6.70;13.70;;;;;;10396982;28;20252;-78
2023/04/03 13:48:26;;;;;;;4.87;1.97;;;7.00;13.80;;;;;;10391551;28;20209;-75
2023/04/03 13:53:58;;;;;;;2.20;1.40;;;6.50;14.40;;;;;;10430339;28;20214;-80
2023/04/03 13:59:26;;;;;;;9.60;3.37;;;6.10;15.80;;;;;;10428816;28;20255;-78
2023/04/03 14:04:55;;;;;;;9.57;5.20;;;6.00;19.70;;;;;;10426962;28;20226;-80
2023/04/03 14:10:18;;;;;;;4.93;2.50;;;5.80;24.70;;;;;;10374683;28;20281;-78
2023/04/03 14:15:40;;;;;;;4.17;3.07;;;5.20;37.30;;;;;;10427389;28;20777;-80
2023/04/03 14:21:01;;;;;;;5.63;2.53;;;4.80;79.40;;;;;;10396920;28;20423;-79
2023/04/03 14:26:26;;;;;;;6.30;2.33;;;4.80;76.10;;;;;;10436726;28;20234;-81
2023/04/03 14:31:49;;;;;;;6.77;3.07;;;4.90;65.20;;;;;;10412395;28;20733;-83
2023/04/03 14:37:31;;;;;;;15.97;8.57;;;5.10;56.80;;;;;;10412766;28;20220;-77
2023/04/03 14:42:54;;;;;;;43.67;21.97;;;5.20;48.50;;;;;;10406212;28;20247;-77
2023/04/03 14:48:21;;;;;;;8.73;3.83;;;5.50;38.80;;;;;;10423484;28;20281;-77
2023/04/03 14:53:44;;;;;;;7.93;2.90;;;5.80;26.60;;;;;;10396569;28;20208;-78
2023/04/03 14:59:12;;;;;;;14.73;8.37;;;5.50;19.50;;;;;;10392290;28;20234;-78
2023/04/03 15:04:33;;;;;;;3.40;2.27;;;5.20;18.80;;;;;;10411175;28;20526;-80
2023/04/03 15:09:57;;;;;;;6.67;3.17;;;5.00;18.90;;;;;;10409895;28;20226;-79
2023/04/03 15:15:21;;;;;;;8.57;4.87;;;4.90;19.80;;;;;;10383489;28;20221;-79
2023/04/03 15:20:43;;;;;;;12.83;4.57;;;5.00;20.50;;;;;;10372081;28;20517;-79
2023/04/03 15:26:05;;;;;;;6.03;2.93;;;5.40;19.60;;;;;;10400506;28;20237;-78
2023/04/03 15:31:27;;;;;;;4.37;2.77;;;5.30;18.10;;;;;;10410914;28;20371;-78
2023/04/03 15:36:49;;;;;;;6.10;3.30;;;5.10;17.00;;;;;;10436680;28;20211;-78
2023/04/03 15:42:12;;;;;;;6.60;4.10;;;4.80;17.50;;;;;;10439470;28;20275;-78
2023/04/03 15:47:33;;;;;;;18.57;9.93;;;4.60;17.50;;;;;;10396517;28;20237;-80
2023/04/03 15:52:55;;;;;;;17.87;9.90;;;4.40;17.20;;;;;;10399439;28;20424;-79
2023/04/03 15:58:16;;;;;;;6.30;2.90;;;4.40;17.60;;;;;;10398989;28;20355;-78
2023/04/03 16:03:43;;;;;;;5.70;3.30;;;4.20;17.50;;;;;;10400892;28;20231;-78
2023/04/03 16:09:04;;;;;;;12.67;6.93;;;4.20;18.20;;;;;;10397606;28;20220;-79
2023/04/03 16:14:27;;;;;;;4.33;2.47;;;4.30;18.70;;;;;;10398180;28;20193;-78
2023/04/03 16:19:49;;;;;;;4.67;2.93;;;4.40;19.80;;;;;;10401934;28;20205;-79
2023/04/03 16:25:11;;;;;;;3.83;2.20;;;4.50;21.20;;;;;;10382899;28;20232;-80
2023/04/03 16:30:33;;;;;;;8.63;3.87;;;4.30;21.40;;;;;;10421878;28;20246;-78
2023/04/03 16:35:54;;;;;;;9.10;5.07;;;4.30;21.80;;;;;;10428896;28;20202;-78
2023/04/03 16:41:16;;;;;;;6.63;3.70;;;4.00;21.20;;;;;;10423118;28;20581;-79
2023/04/03 16:46:37;;;;;;;5.60;2.87;;;3.80;19.80;;;;;;10426747;28;20246;-78
2023/04/03 16:52:00;;;;;;;8.03;4.47;;;3.70;19.30;;;;;;10396061;28;20206;-78
2023/04/03 16:57:24;;;;;;;6.10;3.07;;;3.40;20.40;;;;;;10395575;28;20196;-78
2023/04/03 17:02:45;;;;;;;12.90;7.30;;;3.30;21.60;;;;;;10395430;28;20203;-79
2023/04/03 17:08:06;;;;;;;20.73;12.43;;;3.40;23.00;;;;;;10395268;28;20281;-79
2023/04/03 17:13:31;;;;;;;13.20;8.00;;;3.40;23.70;;;;;;10407175;28;20463;-78
2023/04/03 17:18:53;;;;;;;16.33;8.13;;;3.40;24.80;;;;;;10394715;28;20229;-78
2023/04/03 17:24:15;;;;;;;6.83;3.47;;;3.20;26.70;;;;;;10426036;28;20328;-78
2023/04/03 17:29:36;;;;;;;15.03;5.83;;;3.10;29.40;;;;;;10415681;28;20198;-78
2023/04/03 17:34:58;;;;;;;11.70;5.33;;;3.10;34.60;;;;;;10434810;28;20575;-78
2023/04/03 17:40:19;;;;;;;11.03;3.77;;;3.10;39.20;;;;;;10421139;28;20188;-79
2023/04/03 17:46:03;;;;;;;6.23;3.10;;;2.90;40.50;;;;;;10415113;28;20245;-77
2023/04/03 17:51:25;;;;;;;6.30;3.10;;;2.90;43.20;;;;;;10436152;28;20208;-78
2023/04/03 17:56:47;;;;;;;4.67;2.47;;;2.90;40.90;;;;;;10402401;28;20229;-77
2023/04/03 18:02:07;;;;;;;9.73;3.60;;;2.60;38.70;;;;;;10410189;28;20199;-79
2023/04/03 18:07:49;;;;;;;9.77;3.53;;;2.80;41.20;;;;;;10435366;28;20229;-77
2023/04/03 18:13:10;;;;;;;7.30;3.20;;;2.70;42.60;;;;;;10420601;28;20281;-78
2023/04/03 18:18:31;;;;;;;5.63;2.70;;;2.50;47.50;;;;;;10418838;28;20263;-78
2023/04/03 18:23:54;;;;;;;6.67;3.70;;;2.40;49.50;;;;;;10419896;28;20545;-78
2023/04/03 18:29:15;;;;;;;7.13;3.33;;;2.30;49.40;;;;;;10420632;28;20201;-78
2023/04/03 18:34:37;;;;;;;11.97;6.77;;;2.40;53.20;;;;;;10416601;28;20214;-77
2023/04/03 18:39:57;;;;;;;13.27;6.67;;;2.40;54.90;;;;;;10438174;28;20189;-79
2023/04/03 18:45:22;;;;;;;9.40;4.90;;;2.40;51.80;;;;;;10437277;28;20259;-78
2023/04/03 18:50:44;;;;;;;12.77;5.03;;;2.50;52.00;;;;;;10416031;28;20209;-78
2023/04/03 18:56:06;;;;;;;11.63;5.80;;;2.40;53.80;;;;;;10400403;28;20433;-77
2023/04/03 19:01:27;;;;;;;11.00;5.10;;;2.50;56.30;;;;;;10401098;28;20241;-78
2023/04/03 19:06:48;;;;;;;14.60;5.20;;;2.30;52.00;;;;;;10400908;28;20233;-77
2023/04/03 19:12:10;;;;;;;13.20;4.87;;;2.20;55.40;;;;;;10438659;28;20204;-78
2023/04/03 19:17:32;;;;;;;9.90;4.70;;;2.30;50.40;;;;;;10441651;28;20227;-78
2023/04/03 19:22:54;;;;;;;9.80;4.30;;;2.40;50.70;;;;;;10429127;28;20209;-77
2023/04/03 19:28:15;;;;;;;12.70;5.77;;;2.30;49.90;;;;;;10400501;28;20217;-78
2023/04/03 19:33:36;;;;;;;12.67;5.27;;;2.30;49.00;;;;;;10407568;28;20201;-77
2023/04/03 19:38:57;;;;;;;12.63;5.53;;;2.30;51.10;;;;;;10422117;28;20189;-78
2023/04/03 19:44:19;;;;;;;15.67;6.70;;;2.20;55.50;;;;;;10425561;28;20312;-77
2023/04/03 19:49:40;;;;;;;13.00;6.40;;;2.20;64.90;;;;;;10400634;28;20212;-77
2023/04/03 19:55:01;;;;;;;10.03;4.53;;;2.30;62.90;;;;;;10399260;28;20215;-78
2023/04/03 20:00:22;;;;;;;10.47;4.60;;;2.30;58.50;;;;;;10404907;28;20209;-78
2023/04/03 20:05:45;;;;;;;9.03;4.27;;;2.40;66.90;;;;;;10403765;28;20232;-78
2023/04/03 20:11:06;;;;;;;15.63;6.30;;;2.30;63.70;;;;;;10398625;28;20189;-77
2023/04/03 20:16:28;;;;;;;17.20;6.90;;;2.30;62.90;;;;;;10398536;28;20349;-78
2023/04/03 20:21:49;;;;;;;11.27;4.50;;;2.30;67.70;;;;;;10400847;28;20249;-78
2023/04/03 20:27:10;;;;;;;14.00;5.33;;;2.30;65.10;;;;;;10410971;28;20220;-78
2023/04/03 20:32:32;;;;;;;11.60;6.10;;;2.20;67.70;;;;;;10406456;28;20223;-78
2023/04/03 20:37:53;;;;;;;13.73;6.50;;;2.20;68.50;;;;;;10437571;28;20572;-78
2023/04/03 20:43:16;;;;;;;19.87;7.77;;;2.30;66.40;;;;;;10437188;28;20539;-78
2023/04/03 20:48:38;;;;;;;15.03;7.10;;;2.30;71.30;;;;;;10416560;28;20276;-78
2023/04/03 20:53:59;;;;;;;13.97;6.37;;;2.30;72.10;;;;;;10396335;28;20531;-78
2023/04/03 20:59:21;;;;;;;15.83;6.87;;;2.30;75.20;;;;;;10381852;28;20273;-78
2023/04/03 21:04:49;;;;;;;10.63;5.10;;;2.40;72.50;;;;;;10398812;28;20456;-78
2023/04/03 21:10:48;;;;;;;10.80;4.37;;;2.30;71.30;;;;;;10395381;28;20198;-78
2023/04/03 21:16:09;;;;;;;13.67;4.80;;;2.30;71.10;;;;;;10380881;28;20249;-78
2023/04/03 21:21:35;;;;;;;11.67;5.40;;;2.30;74.40;;;;;;10395779;28;20197;-79
2023/04/03 21:26:57;;;;;;;7.73;3.53;;;2.30;76.30;;;;;;10408628;28;20265;-78
2023/04/03 21:32:18;;;;;;;6.40;3.03;;;2.30;77.90;;;;;;10400603;28;20219;-78
2023/04/03 21:37:39;;;;;;;10.37;3.83;;;2.40;72.00;;;;;;10406519;28;20208;-77
2023/04/03 21:43:01;;;;;;;9.13;3.27;;;2.30;71.40;;;;;;10435340;28;20228;-78
2023/04/03 21:48:23;;;;;;;5.47;2.47;;;2.20;66.30;;;;;;10434965;28;20524;-78
2023/04/03 21:53:44;;;;;;;13.10;4.47;;;2.20;69.90;;;;;;10395934;28;20493;-79
2023/04/03 21:59:05;;;;;;;10.50;4.90;;;2.30;64.70;;;;;;10395207;28;20375;-78
2023/04/03 22:04:28;;;;;;;13.03;5.03;;;2.30;65.60;;;;;;10394832;28;20218;-77
2023/04/03 22:09:49;;;;;;;9.80;4.20;;;2.40;60.80;;;;;;10435782;28;20216;-78
2023/04/03 22:15:10;;;;;;;15.20;5.03;;;2.40;66.90;;;;;;10434932;28;20530;-78
2023/04/03 22:20:32;;;;;;;11.90;4.60;;;2.40;71.00;;;;;;10430771;28;20360;-78
2023/04/03 22:26:07;;;;;;;4.93;2.27;;;2.40;71.90;;;;;;10433785;28;20626;-78
2023/04/03 22:31:28;;;;;;;7.93;2.40;;;2.20;61.20;;;;;;10440236;28;20279;-78
2023/04/03 22:36:49;;;;;;;5.90;2.20;;;2.20;65.50;;;;;;10420448;28;20207;-77
2023/04/03 22:42:11;;;;;;;8.10;2.77;;;2.10;61.00;;;;;;10421057;28;20563;-77
2023/04/03 22:47:32;;;;;;;9.07;4.20;;;2.00;63.00;;;;;;10401444;28;20229;-77
2023/04/03 22:52:53;;;;;;;8.00;4.07;;;2.00;62.30;;;;;;10386670;28;20514;-78
2023/04/03 22:58:14;;;;;;;11.97;4.70;;;2.00;62.40;;;;;;10403191;28;20209;-77
2023/04/03 23:03:36;;;;;;;5.90;3.20;;;2.10;63.20;;;;;;10386520;28;20204;-77
2023/04/03 23:08:57;;;;;;;10.83;3.83;;;2.00;68.40;;;;;;10401178;28;20297;-77
2023/04/03 23:14:20;;;;;;;7.60;3.47;;;1.90;80.10;;;;;;10430380;28;20200;-78
2023/04/03 23:19:42;;;;;;;10.53;2.63;;;2.00;80.60;;;;;;10441185;28;20267;-78
2023/04/03 23:25:03;;;;;;;5.50;2.70;;;1.90;79.80;;;;;;10441048;28;20224;-78
2023/04/03 23:30:25;;;;;;;6.83;2.53;;;2.00;80.40;;;;;;10438469;28;20207;-77
2023/04/03 23:35:47;;;;;;;3.23;1.70;;;2.00;77.00;;;;;;10425834;28;20255;-79
2023/04/03 23:41:09;;;;;;;3.97;2.13;;;2.00;82.10;;;;;;10399801;28;20249;-78
2023/04/03 23:46:30;;;;;;;7.77;2.23;;;2.00;84.10;;;;;;10398158;28;20253;-77
2023/04/03 23:51:51;;;;;;;6.00;2.10;;;2.00;83.80;;;;;;10399514;28;20356;-79
2023/04/03 23:57:12;;;;;;;5.17;2.53;;;2.00;89.80;;;;;;10420546;28;20364;-77
